Decoded Metar for FEFF (BANGUI in CENTRAL AFRICAN REP.) (IATA:BGF) | Meteo·Mobile Aviation Weather
aviador You're here:

FEFF Decoded Metar

BANGUI in CENTRAL AFRICAN REP.
Report Time2018-12-16 19:00:00
UTC Time2018-12-16 19:22:03
Flight Rules vfr VFR
WindVRB at 02 kt
Visibility8000 m
Phenomena:thunderstorm
Clouds:Few CB 033 Hf
Expected CloudBase > 1,200 ft AGL from Temp-Dew spread
CeilingNone
Temp27°C (ISA +14)
Dew Point24°C (84% RH)
Heat Index30.1°C
QNH1012 hPa
Density Alt3,291 ft
Elevation1,201 ft
Report Wrong Elevation
Raw Report
FEFF 161900Z VRB02KT 8000 TS FEW033CB 27/24 Q1012 NOSIG=

Extra information for FEFF:More info

Metar Taf Metar & Taf Last 4 Metars F.Rules Stats Wind Profile Meteogram Temp Stats Airport Information Weather charts Add Link Nearby VenuesMetar ALERT Operation Metar Decoded Social comments